Terminal Aerodrome Forecast
Issued by NWS Albany, NY

Home | Current Version | Previous Version | Text Only | Print | Product List | Glossary On
Versions: 1 2 3 4 5 6 7 8 9 10 11 12 13
054
FTUS41 KALY 250546
TAFGFL
TAF
KGFL 250546Z 2506/2606 VRB03KT P6SM SCT120 BKN250
     FM251100 02005KT P6SM VCSH BKN050 OVC080
     FM251400 03005KT 6SM -RA BR BKN025 OVC050
     FM251900 03006KT 4SM -RA BR OVC025
     FM260200 02010KT 3SM -RA SCT007 OVC015=

USA.gov is the U.S. government's official web portal to all federal, state and local government web resources and services.